Jerusalem, Israel
Current Conditions -  °F | °C
As of 8:50 AM on Thursday 23 Oct 2014 (Local Time) from LLBG Reporting Station
Few Clouds Few Clouds  
Wind Chill: 72°   Ceiling: Unl
Heat Index: 72°   Visibility: 6mi
Dew Point: 59°   Wind: 8mph
Humidity: 64%   Direction: 170°S
Pressure: 30"   Gusts: NA
Location:  31.78°N, 35.22°E
Report Text: LLBG 230550Z 17007KT 9999 FEW035 22/15 Q1016 NOSIG
Loading
Personal Weather Stations






























Interactive Weather Map
Tropical Storm Tracking
New forecast layout! Learn more

10-Day Weather Forecast

Advertisements
Track Severe Weather on mobile